createdAt,value
2022-12-20T00:01:32.860Z,71.48
2022-12-20T00:04:05.514Z,71.88
2022-12-20T00:06:35.882Z,72.24
2022-12-20T00:09:06.001Z,72.26
2022-12-20T00:11:32.945Z,72.84
2022-12-20T00:13:59.579Z,72.45
2022-12-20T00:16:29.435Z,71.86
2022-12-20T00:19:02.694Z,71.88
2022-12-20T00:21:33.382Z,72.32
2022-12-20T00:24:00.362Z,72.08
2022-12-20T00:26:30.651Z,72.17
2022-12-20T00:28:57.890Z,71.91
2022-12-20T00:31:27.283Z,71.58
2022-12-20T00:33:56.356Z,71.12
2022-12-20T00:36:27.144Z,70.60
2022-12-20T00:38:59.011Z,70.87
2022-12-20T00:41:29.788Z,70.40
2022-12-20T00:43:56.424Z,70.97
2022-12-20T00:46:23.653Z,71.40
2022-12-20T00:48:51.137Z,71.41
2022-12-20T00:51:25.096Z,71.48
2022-12-20T00:53:52.313Z,71.28
2022-12-20T00:56:20.188Z,70.85
2022-12-20T00:58:47.669Z,71.18
2022-12-20T01:01:27.502Z,71.24
2022-12-20T01:03:55.100Z,71.89
2022-12-20T01:06:24.954Z,72.21
2022-12-20T01:08:53.998Z,72.50
2022-12-20T01:11:28.498Z,72.19
2022-12-20T01:13:58.421Z,71.55
2022-12-20T01:16:38.488Z,71.02
2022-12-20T01:19:07.235Z,70.83
2022-12-20T01:21:34.160Z,70.50
2022-12-20T01:24:01.317Z,70.55
2022-12-20T01:26:30.151Z,70.13
2022-12-20T01:29:00.190Z,70.10
2022-12-20T01:31:29.590Z,70.38
2022-12-20T01:33:56.714Z,70.42
2022-12-20T01:36:27.877Z,70.66
2022-12-20T01:39:04.072Z,70.89
2022-12-20T01:41:33.182Z,71.13
2022-12-20T01:44:27.080Z,71.08
2022-12-20T01:46:54.821Z,72.41
2022-12-20T01:49:31.749Z,71.94
2022-12-20T01:52:29.125Z,71.85
2022-12-20T01:55:10.072Z,71.41
2022-12-20T01:57:49.331Z,71.35
2022-12-20T02:00:17.211Z,71.13
2022-12-20T02:02:47.685Z,70.47
2022-12-20T02:05:16.912Z,70.79
2022-12-20T02:07:48.459Z,71.08
2022-12-20T02:10:16.897Z,71.45
2022-12-20T02:12:48.488Z,71.24
2022-12-20T02:15:57.883Z,71.34
2022-12-20T02:18:31.784Z,71.63
2022-12-20T02:21:25.886Z,71.30
2022-12-20T02:24:31.274Z,71.32
2022-12-20T02:27:31.899Z,72.27
2022-12-20T02:30:03.199Z,72.49
2022-12-20T02:33:02.189Z,72.43
2022-12-20T02:35:33.478Z,72.50
2022-12-20T02:38:23.579Z,71.99
2022-12-20T02:40:57.597Z,72.51
2022-12-20T02:43:46.278Z,72.87
2022-12-20T02:46:15.592Z,72.56
2022-12-20T02:48:42.928Z,72.57
2022-12-20T02:51:11.913Z,73.03
2022-12-20T02:53:39.278Z,72.47
2022-12-20T02:56:36.112Z,72.22
2022-12-20T02:59:14.965Z,71.77
2022-12-20T03:01:51.027Z,71.76
2022-12-20T03:04:21.676Z,72.03
2022-12-20T03:07:01.301Z,72.07
2022-12-20T03:09:30.791Z,72.00
2022-12-20T03:11:57.808Z,71.64
2022-12-20T03:14:24.707Z,71.81
2022-12-20T03:16:51.330Z,71.20
2022-12-20T03:19:18.150Z,70.94
2022-12-20T03:21:44.819Z,70.45
2022-12-20T03:24:13.450Z,70.67
2022-12-20T03:26:41.335Z,70.90
2022-12-20T03:29:07.969Z,71.28
2022-12-20T03:31:35.231Z,72.34
2022-12-20T03:34:02.688Z,72.09
2022-12-20T03:36:29.573Z,71.51
2022-12-20T03:38:56.670Z,71.29
2022-12-20T03:41:24.763Z,71.59
2022-12-20T03:43:52.975Z,72.25
2022-12-20T03:46:19.880Z,72.14
2022-12-20T03:48:46.461Z,72.15
2022-12-20T03:51:12.957Z,72.49
2022-12-20T03:53:39.473Z,72.23
2022-12-20T03:56:06.424Z,71.90
2022-12-20T03:58:32.891Z,72.33
2022-12-20T04:00:59.463Z,72.30
2022-12-20T04:03:26.035Z,72.17
2022-12-20T04:05:52.647Z,71.68
2022-12-20T04:08:19.123Z,71.46
2022-12-20T04:11:04.145Z,71.98
2022-12-20T04:13:30.604Z,72.49
2022-12-20T04:16:00.629Z,72.44
2022-12-20T04:18:27.232Z,71.45
2022-12-20T04:20:54.747Z,71.16
2022-12-20T04:23:21.176Z,71.61
2022-12-20T04:25:47.619Z,71.52
2022-12-20T04:28:14.107Z,71.65
2022-12-20T04:30:40.607Z,71.51
2022-12-20T04:33:07.093Z,71.40
2022-12-20T04:35:33.573Z,71.32
2022-12-20T04:38:00.137Z,71.81
2022-12-20T04:40:26.637Z,72.04
2022-12-20T04:42:53.165Z,72.38
2022-12-20T04:45:19.649Z,71.96
2022-12-20T04:47:46.147Z,71.65
2022-12-20T04:50:12.860Z,71.40
2022-12-20T04:53:05.696Z,70.94
2022-12-20T04:55:38.627Z,71.06
2022-12-20T04:58:07.819Z,71.33
2022-12-20T05:00:35.346Z,71.32
2022-12-20T05:03:02.076Z,71.46
2022-12-20T05:05:28.940Z,70.86
2022-12-20T05:07:56.037Z,70.98
2022-12-20T05:10:22.778Z,71.36
2022-12-20T05:12:49.499Z,71.48
2022-12-20T05:15:16.019Z,71.83
2022-12-20T05:17:42.599Z,71.57
2022-12-20T05:20:10.787Z,71.71
2022-12-20T05:22:56.163Z,71.87
2022-12-20T05:25:41.373Z,71.44
2022-12-20T05:28:08.090Z,72.01
2022-12-20T05:30:34.624Z,71.67
2022-12-20T05:33:01.084Z,71.37
2022-12-20T05:35:27.536Z,71.42
2022-12-20T05:37:54.120Z,71.32
2022-12-20T05:40:20.639Z,71.36
2022-12-20T05:42:47.075Z,71.28
2022-12-20T05:45:13.669Z,71.49
2022-12-20T05:47:40.136Z,71.46
2022-12-20T05:50:12.350Z,71.79
2022-12-20T05:52:43.157Z,72.09
2022-12-20T05:55:10.436Z,72.90
2022-12-20T05:57:37.001Z,72.50
2022-12-20T06:00:06.128Z,71.69
2022-12-20T06:02:32.885Z,71.78
2022-12-20T06:04:59.747Z,71.44
2022-12-20T06:07:28.911Z,71.96
2022-12-20T06:09:56.486Z,71.27
2022-12-20T06:12:23.271Z,71.25
2022-12-20T06:14:50.061Z,71.42
2022-12-20T06:17:18.678Z,71.37
2022-12-20T06:19:45.216Z,71.70
2022-12-20T06:22:11.657Z,71.62
2022-12-20T06:24:44.328Z,71.79
2022-12-20T06:27:14.367Z,71.56
2022-12-20T06:29:40.864Z,72.07
2022-12-20T06:32:07.396Z,71.92
2022-12-20T06:34:34.016Z,72.45
2022-12-20T06:37:00.539Z,72.46
2022-12-20T06:39:27.034Z,72.41
2022-12-20T06:41:53.562Z,72.23
2022-12-20T06:44:20.090Z,71.81
2022-12-20T06:46:46.681Z,72.21
2022-12-20T06:49:13.198Z,72.23
2022-12-20T06:51:39.712Z,71.79
2022-12-20T06:54:06.227Z,71.79
2022-12-20T06:56:39.264Z,71.80
2022-12-20T06:59:07.722Z,71.53
2022-12-20T07:01:34.372Z,71.66
2022-12-20T07:04:00.964Z,71.44
2022-12-20T07:06:29.281Z,71.57
2022-12-20T07:08:56.274Z,71.86
2022-12-20T07:11:22.817Z,71.92
2022-12-20T07:13:50.197Z,72.10
2022-12-20T07:16:16.746Z,72.06
2022-12-20T07:18:43.287Z,71.67
2022-12-20T07:21:09.822Z,71.41
2022-12-20T07:23:36.283Z,71.20
2022-12-20T07:26:03.915Z,71.40
2022-12-20T07:28:30.639Z,71.66
2022-12-20T07:31:02.133Z,71.79
2022-12-20T07:33:29.695Z,72.23
2022-12-20T07:36:06.917Z,71.97
2022-12-20T07:38:35.621Z,72.21
2022-12-20T07:41:12.259Z,72.06
2022-12-20T07:43:39.198Z,72.62
2022-12-20T07:46:08.005Z,72.12
2022-12-20T07:48:36.051Z,72.23
2022-12-20T07:51:18.007Z,72.01
2022-12-20T07:53:52.657Z,72.26
2022-12-20T07:56:22.374Z,71.99
2022-12-20T07:58:53.395Z,72.30
2022-12-20T08:01:21.443Z,72.24
2022-12-20T08:03:58.194Z,72.12
2022-12-20T08:06:24.612Z,72.59
2022-12-20T08:08:58.679Z,73.02
2022-12-20T08:11:27.819Z,72.95
2022-12-20T08:13:58.112Z,72.60
2022-12-20T08:16:25.568Z,72.49
2022-12-20T08:18:52.286Z,71.61
2022-12-20T08:21:19.133Z,71.32
2022-12-20T08:23:45.940Z,71.21
2022-12-20T08:26:12.482Z,70.72
2022-12-20T08:28:39.064Z,71.26
2022-12-20T08:31:08.284Z,70.97
2022-12-20T08:33:37.654Z,70.66
2022-12-20T08:36:09.724Z,70.45
2022-12-20T08:38:37.303Z,70.81
2022-12-20T08:41:15.283Z,70.69
2022-12-20T08:43:42.962Z,71.40
2022-12-20T08:46:12.400Z,71.36
2022-12-20T08:48:39.790Z,71.57
2022-12-20T08:51:10.920Z,70.88
2022-12-20T08:53:38.558Z,71.15
2022-12-20T08:56:14.595Z,70.65
2022-12-20T08:58:42.898Z,70.34
2022-12-20T09:01:13.754Z,70.81
2022-12-20T09:03:41.356Z,70.61
2022-12-20T09:06:21.010Z,70.21
2022-12-20T09:08:48.771Z,69.78
2022-12-20T09:11:19.205Z,69.59
2022-12-20T09:13:50.413Z,69.91
2022-12-20T09:16:20.812Z,70.40
2022-12-20T09:19:04.213Z,70.52
2022-12-20T09:21:32.507Z,71.25
2022-12-20T09:23:59.156Z,70.94
2022-12-20T09:26:26.463Z,71.22
2022-12-20T09:28:53.828Z,71.89
2022-12-20T09:31:24.072Z,72.15
2022-12-20T09:33:55.321Z,71.92
2022-12-20T09:36:24.845Z,71.98
2022-12-20T09:38:52.231Z,71.75
2022-12-20T09:41:29.933Z,71.81
2022-12-20T09:44:00.405Z,71.95
2022-12-20T09:46:28.044Z,71.28
2022-12-20T09:48:57.529Z,71.53
2022-12-20T09:51:54.482Z,71.57
2022-12-20T09:54:46.420Z,72.05
2022-12-20T09:57:32.877Z,71.85
2022-12-20T09:59:59.498Z,72.47
2022-12-20T10:05:41.811Z,72.30
2022-12-20T10:08:31.840Z,72.20
2022-12-20T10:11:50.127Z,71.79
2022-12-20T10:14:38.179Z,71.72
2022-12-20T10:17:15.579Z,71.59
2022-12-20T10:20:09.705Z,71.09
2022-12-20T10:22:53.005Z,71.55
2022-12-20T10:25:30.103Z,71.88
2022-12-20T10:27:57.904Z,71.31
2022-12-20T10:30:28.600Z,71.55
2022-12-20T10:32:58.672Z,71.16
2022-12-20T10:35:33.911Z,71.39
2022-12-20T10:38:08.784Z,71.42
2022-12-20T10:41:20.598Z,71.93
2022-12-20T10:43:52.500Z,72.57
2022-12-20T10:46:19.571Z,72.55
2022-12-20T10:48:48.903Z,72.28
2022-12-20T10:51:22.565Z,72.12
2022-12-20T10:54:19.913Z,72.30
2022-12-20T10:57:00.324Z,71.84
2022-12-20T10:59:39.753Z,71.59
2022-12-20T11:02:40.903Z,72.12
2022-12-20T11:05:11.443Z,72.22
2022-12-20T11:11:22.330Z,71.62
2022-12-20T11:13:50.804Z,72.23
2022-12-20T11:16:39.959Z,72.33
2022-12-20T11:19:34.834Z,71.93
2022-12-20T11:22:06.130Z,71.49
2022-12-20T11:25:00.091Z,71.14
2022-12-20T11:27:51.694Z,72.06
2022-12-20T11:31:17.685Z,71.61
2022-12-20T11:34:30.556Z,71.46
2022-12-20T11:37:19.551Z,70.87
2022-12-20T11:39:58.064Z,71.57
2022-12-20T11:42:58.127Z,72.01
2022-12-20T11:45:45.875Z,72.40
2022-12-20T11:48:41.895Z,71.82
2022-12-20T11:51:47.777Z,72.05
2022-12-20T11:54:37.530Z,72.46
2022-12-20T11:57:16.561Z,72.23
2022-12-20T12:00:00.206Z,71.51
2022-12-20T12:02:58.420Z,71.68
2022-12-20T12:05:47.241Z,71.13
2022-12-20T12:08:23.409Z,72.21
2022-12-20T12:11:39.951Z,72.75
2022-12-20T12:14:05.839Z,73.23
2022-12-20T12:16:40.236Z,73.24
2022-12-20T12:19:12.515Z,73.53
2022-12-20T12:21:57.929Z,73.48
2022-12-20T12:24:42.450Z,73.08
2022-12-20T12:27:23.644Z,73.06
2022-12-20T12:29:53.047Z,73.00
2022-12-20T12:32:43.947Z,72.21
2022-12-20T12:35:51.719Z,72.55
2022-12-20T12:39:02.522Z,71.97
2022-12-20T12:41:54.153Z,71.68
2022-12-20T12:44:36.585Z,72.44
2022-12-20T12:47:16.662Z,72.29
2022-12-20T12:49:49.772Z,72.84
2022-12-20T12:52:57.272Z,72.87
2022-12-20T12:55:46.467Z,72.88
2022-12-20T12:58:24.826Z,72.38
2022-12-20T13:01:18.690Z,72.00
2022-12-20T13:04:29.592Z,71.96
2022-12-20T13:07:04.032Z,71.52
2022-12-20T13:09:30.423Z,71.75
2022-12-20T13:12:02.452Z,71.25
2022-12-20T13:14:32.069Z,71.06
2022-12-20T13:17:13.147Z,71.15
2022-12-20T13:19:54.639Z,72.01
2022-12-20T13:22:26.323Z,71.84
2022-12-20T13:24:58.139Z,71.73
2022-12-20T13:27:38.910Z,71.47
2022-12-20T13:30:05.474Z,71.28
2022-12-20T13:32:47.277Z,70.82
2022-12-20T13:35:25.704Z,71.10
2022-12-20T13:38:06.923Z,71.04
2022-12-20T13:40:39.320Z,71.20
2022-12-20T13:43:12.235Z,71.45
2022-12-20T13:45:43.358Z,71.82
2022-12-20T13:48:18.849Z,71.46
2022-12-20T13:50:54.542Z,71.59
2022-12-20T13:53:27.624Z,72.05
2022-12-20T13:55:54.752Z,71.87
2022-12-20T13:58:34.363Z,71.31
2022-12-20T14:01:11.415Z,71.78
2022-12-20T14:03:46.686Z,71.58
2022-12-20T14:06:15.605Z,72.41
2022-12-20T14:08:48.526Z,71.85
2022-12-20T14:11:20.279Z,71.79
2022-12-20T14:13:55.516Z,71.14
2022-12-20T14:16:25.634Z,71.38
2022-12-20T14:18:58.133Z,71.25
2022-12-20T14:21:26.366Z,71.24
2022-12-20T14:23:58.708Z,71.59
2022-12-20T14:26:29.762Z,71.76
2022-12-20T14:29:00.235Z,71.72
2022-12-20T14:31:38.170Z,71.67
2022-12-20T14:34:15.179Z,72.24
2022-12-20T14:36:48.576Z,72.03
2022-12-20T14:39:33.559Z,71.81
2022-12-20T14:42:07.420Z,73.15
2022-12-20T14:44:34.879Z,72.89
2022-12-20T14:47:18.394Z,72.90
2022-12-20T14:50:20.478Z,72.72
2022-12-20T14:52:47.419Z,72.46
2022-12-20T14:55:25.251Z,71.54
2022-12-20T14:57:55.721Z,71.42
2022-12-20T15:00:29.655Z,71.80
2022-12-20T15:02:56.173Z,71.86
2022-12-20T15:05:38.672Z,71.37
2022-12-20T15:08:29.288Z,71.55
2022-12-20T15:11:11.308Z,71.53
2022-12-20T15:13:43.628Z,71.45
2022-12-20T15:16:18.351Z,71.14
2022-12-20T15:18:46.442Z,72.09
2022-12-20T15:21:24.195Z,71.92
2022-12-20T15:23:55.054Z,72.09
2022-12-20T15:26:27.224Z,71.88
2022-12-20T15:28:54.608Z,71.96
2022-12-20T15:31:30.690Z,73.01
2022-12-20T15:33:59.306Z,72.60
2022-12-20T15:36:29.181Z,72.80
2022-12-20T15:39:14.728Z,72.67
2022-12-20T15:41:47.276Z,72.32
2022-12-20T15:44:22.507Z,72.53
2022-12-20T15:46:49.463Z,72.73
2022-12-20T15:49:22.925Z,72.06
2022-12-20T15:51:52.468Z,72.24
2022-12-20T15:54:32.819Z,72.90
2022-12-20T15:57:07.535Z,73.08
2022-12-20T16:02:26.213Z,72.80
2022-12-20T16:04:55.124Z,72.87
2022-12-20T16:07:21.877Z,72.33
2022-12-20T16:09:48.486Z,72.60
2022-12-20T16:12:19.887Z,73.25
2022-12-20T16:14:46.411Z,72.89
2022-12-20T16:17:16.333Z,72.21
2022-12-20T16:19:43.711Z,72.11
2022-12-20T16:22:24.153Z,71.73
2022-12-20T16:24:51.724Z,72.15
2022-12-20T16:27:18.491Z,72.58
2022-12-20T16:29:45.273Z,72.37
2022-12-20T16:32:19.525Z,72.40
2022-12-20T16:34:48.475Z,72.36
2022-12-20T16:37:15.015Z,72.16
2022-12-20T16:39:42.390Z,71.95
2022-12-20T16:42:17.999Z,71.92
2022-12-20T16:44:45.998Z,72.17
2022-12-20T16:47:13.986Z,72.80
2022-12-20T16:49:47.287Z,72.69
2022-12-20T16:52:19.975Z,72.71
2022-12-20T16:54:46.982Z,72.61
2022-12-20T16:57:13.544Z,72.71
2022-12-20T16:59:40.060Z,73.20
2022-12-20T17:02:29.728Z,72.72
2022-12-20T17:04:56.615Z,72.18
2022-12-20T17:07:23.106Z,71.58
2022-12-20T17:09:49.708Z,71.93
2022-12-20T17:12:19.166Z,72.16
2022-12-20T17:14:46.399Z,72.03
2022-12-20T17:17:13.531Z,72.12
2022-12-20T17:19:40.012Z,72.02
2022-12-20T17:24:51.622Z,71.57
2022-12-20T17:27:18.972Z,70.82
2022-12-20T17:29:45.612Z,71.43
2022-12-20T17:32:29.903Z,71.78
2022-12-20T17:34:56.430Z,71.63
2022-12-20T17:37:24.466Z,72.00
2022-12-20T17:39:50.970Z,71.90
2022-12-20T17:42:17.464Z,71.40
2022-12-20T17:44:44.025Z,71.26
2022-12-20T17:47:11.444Z,72.13
2022-12-20T17:49:38.065Z,72.02
2022-12-20T17:52:04.647Z,71.62
2022-12-20T17:54:38.901Z,71.99
2022-12-20T17:57:11.691Z,71.97
2022-12-20T17:59:38.142Z,71.36
2022-12-20T18:02:20.664Z,71.72
2022-12-20T18:04:47.428Z,72.34
2022-12-20T18:07:14.022Z,73.18
2022-12-20T18:09:40.517Z,73.46
2022-12-20T18:12:08.149Z,72.87
2022-12-20T18:14:34.625Z,72.83
2022-12-20T18:17:01.184Z,73.02
2022-12-20T18:19:27.664Z,73.26
2022-12-20T18:21:54.100Z,72.59
2022-12-20T18:24:21.446Z,72.24
2022-12-20T18:26:47.961Z,71.88
2022-12-20T18:29:14.549Z,72.45
2022-12-20T18:31:41.116Z,72.14
2022-12-20T18:34:07.888Z,72.06
2022-12-20T18:36:37.366Z,71.45
2022-12-20T18:39:07.821Z,72.19
2022-12-20T18:41:35.354Z,71.80
2022-12-20T18:44:08.086Z,72.04
2022-12-20T18:46:34.692Z,71.78
2022-12-20T18:49:02.356Z,72.55
2022-12-20T18:51:38.581Z,72.13
2022-12-20T18:54:08.321Z,73.01
2022-12-20T18:56:38.410Z,73.03
2022-12-20T18:59:13.838Z,73.08
2022-12-20T19:01:43.194Z,72.55
2022-12-20T19:04:10.744Z,72.97
2022-12-20T19:06:38.017Z,72.56
2022-12-20T19:09:13.330Z,72.31
2022-12-20T19:11:40.330Z,72.94
2022-12-20T19:14:07.811Z,73.27
2022-12-20T19:16:35.357Z,73.10
2022-12-20T19:19:03.664Z,72.99
2022-12-20T19:21:33.793Z,72.38
2022-12-20T19:24:05.487Z,72.13
2022-12-20T19:26:32.712Z,72.66
2022-12-20T19:28:59.965Z,72.50
2022-12-20T19:31:32.052Z,72.08
2022-12-20T19:34:07.256Z,71.90
2022-12-20T19:36:45.363Z,71.91
2022-12-20T19:39:20.363Z,71.81
2022-12-20T19:42:13.995Z,72.66
2022-12-20T19:44:34.610Z,73.23
2022-12-20T19:47:07.151Z,72.49
2022-12-20T19:49:35.828Z,72.55
2022-12-20T19:52:03.279Z,72.30
2022-12-20T19:54:29.789Z,71.65
2022-12-20T19:56:57.403Z,72.67
2022-12-20T19:59:24.563Z,72.74
2022-12-20T20:01:51.199Z,72.63
2022-12-20T20:04:17.768Z,72.72
2022-12-20T20:06:44.705Z,72.36
2022-12-20T20:09:11.346Z,72.81
2022-12-20T20:11:37.853Z,72.50
2022-12-20T20:14:04.890Z,72.07
2022-12-20T20:16:32.499Z,72.74
2022-12-20T20:18:59.040Z,73.40
2022-12-20T20:21:25.557Z,73.23
2022-12-20T20:23:54.550Z,73.00
2022-12-20T20:26:29.128Z,72.51
2022-12-20T20:28:55.631Z,73.12
2022-12-20T20:31:22.252Z,72.46
2022-12-20T20:33:50.705Z,72.67
2022-12-20T20:36:22.218Z,72.40
2022-12-20T20:38:50.546Z,72.89
2022-12-20T20:41:18.178Z,72.87
2022-12-20T20:43:45.038Z,72.82
2022-12-20T20:46:15.088Z,72.21
2022-12-20T20:48:42.918Z,72.68
2022-12-20T20:51:10.513Z,73.07
2022-12-20T20:53:37.475Z,72.30
2022-12-20T20:56:06.379Z,71.95
2022-12-20T20:58:34.585Z,72.17
2022-12-20T21:01:05.312Z,71.73
2022-12-20T21:03:32.544Z,71.76
2022-12-20T21:06:35.021Z,71.71
2022-12-20T21:08:45.937Z,71.75
2022-12-20T21:11:12.905Z,71.85
2022-12-20T21:13:39.823Z,72.38
2022-12-20T21:16:20.106Z,71.83
2022-12-20T21:18:54.990Z,72.37
2022-12-20T21:21:23.049Z,72.21
2022-12-20T21:23:50.609Z,72.53
2022-12-20T21:26:19.720Z,72.16
2022-12-20T21:28:46.294Z,72.62
2022-12-20T21:31:17.291Z,72.33
2022-12-20T21:33:45.949Z,73.14
2022-12-20T21:36:19.131Z,72.88
2022-12-20T21:38:51.092Z,72.99
2022-12-20T21:41:20.685Z,73.13
2022-12-20T21:43:47.228Z,73.99
2022-12-20T21:46:13.747Z,73.43
2022-12-20T21:48:43.068Z,73.95
2022-12-20T21:51:21.052Z,73.80
2022-12-20T21:53:51.267Z,74.08
2022-12-20T21:56:19.920Z,74.16
2022-12-20T21:58:47.696Z,74.00
2022-12-20T22:01:20.089Z,74.29
2022-12-20T22:04:01.702Z,74.26
2022-12-20T22:06:28.944Z,74.58
2022-12-20T22:08:59.874Z,74.65
2022-12-20T22:11:27.249Z,74.96
2022-12-20T22:13:55.677Z,74.73
2022-12-20T22:16:26.077Z,74.91
2022-12-20T22:18:55.204Z,74.45
2022-12-20T22:21:25.992Z,74.30
2022-12-20T22:23:55.501Z,75.09
2022-12-20T22:26:25.885Z,74.58
2022-12-20T22:28:59.039Z,75.21
2022-12-20T22:31:26.302Z,75.30
2022-12-20T22:33:55.322Z,75.36
2022-12-20T22:36:22.805Z,75.31
2022-12-20T22:38:54.916Z,74.88
2022-12-20T22:41:27.159Z,74.84
2022-12-20T22:43:54.205Z,75.30
2022-12-20T22:46:21.251Z,75.75
2022-12-20T22:48:47.911Z,75.19
2022-12-20T22:51:18.810Z,75.54
2022-12-20T22:53:47.469Z,75.88
2022-12-20T22:56:17.455Z,75.62
2022-12-20T22:58:44.466Z,76.16
2022-12-20T23:01:15.182Z,76.35
2022-12-20T23:03:42.914Z,75.97
2022-12-20T23:06:15.254Z,75.76
2022-12-20T23:08:42.785Z,76.01
2022-12-20T23:11:43.933Z,75.75
2022-12-20T23:14:39.449Z,76.22
2022-12-20T23:17:09.215Z,76.29
2022-12-20T23:19:54.573Z,75.89
2022-12-20T23:22:39.224Z,76.03
2022-12-20T23:25:18.159Z,76.28
2022-12-20T23:27:48.483Z,76.10
2022-12-20T23:30:19.432Z,75.83
2022-12-20T23:32:46.640Z,76.46
2022-12-20T23:35:19.466Z,76.07
2022-12-20T23:37:46.879Z,76.02
2022-12-20T23:40:15.235Z,75.90
2022-12-20T23:42:42.178Z,76.04
2022-12-20T23:45:10.456Z,75.78
2022-12-20T23:47:37.101Z,75.48
2022-12-20T23:50:04.233Z,75.51
2022-12-20T23:52:30.779Z,75.40
2022-12-20T23:54:57.216Z,75.48
2022-12-20T23:57:23.678Z,75.63
2022-12-20T23:59:50.426Z,75.57
